Cedar East Bethel, Minnesota
Current Conditions -  °F | °C
As of 10:55 AM on Thursday 27 Nov 2014 (Local Time) from KANE Reporting Station
Clear Clear  
Wind Chill:   Ceiling: Unl
Heat Index:   Visibility: 10mi
Dew Point: -2°   Wind: 3mph
Humidity: 72%   Direction: 360°N
Pressure: 30.5"   Gusts: NA
Location:  45.3385°N, 93.2617°W
Report Text: KANE 271655Z 36003KT 10SM SKC M15/M19 A3050
Loading
Personal Weather Stations






























Interactive Weather Map New forecast layout! Learn more

10-Day Weather Forecast

Advertisements
Track Severe Weather on mobile